Main page
METAR-TAF:

METAR-TAF

Airports :

Shreveport Regional Airport

Shreveport, Louisiana, United States

latitude: 32-26-49N, longitude: 093-49-27W, elevation: 256 ft

Current weather observation

The report was made 40 minutes ago, at 02:56 UTC
Wind 6 mph from the West
Temperature 59°F
Humidity 39%
Pressure 30.05 in. Hg
Visibility: 10 miles
Clear sky

METAR: KSHV 240256Z 27005KT 10SM CLR 15/01 A3005 RMK SLPNO

Time: 21:36 (03:36 UTC)

Forecast

The report was made 3 hours and 13 minutes ago, at 00:23 UTC
Forecast valid from 24 at 00 UTC to 24 at 24 UTC
Wind 12 mph from the North/Northwest
Visibility: 6 miles
Few clouds at a height of 500 ft
Few clouds at a height of 7000 ft
Few clouds at a height of 28000 ft
From 24 at 1500 UTC
Wind 9 mph from the Northwest
Visibility: 6 miles
Clear sky

TAF: KSHV 240023Z 2400/2424 33010KT P6SM FEW005 FEW070 FEW280 FM241500 31008KT P6SM SKC

Weather observations and forecasts of more than 4000 airports (METAR and TAF reports).

The available stations are represented by yellow and red dots on the map.

Hover mouse over dot to see the name of the station.

Then click to see weather observations and forecasts.

To change the map : click on the green buttons with a black cross to zoom in, on the green button with a dash to zoom out, or on the green arrows for adjacent maps.


METAR-TAF: